Time;durP1;ratioP1;P1;durP2;ratioP2;P2;SDS_P1;SDS_P2;PMS_P1;PMS_P2;Temp;Humidity;BMP_temperature;BMP_pressure;BME280_temperature;BME280_humidity;BME280_pressure;Samples;Min_cycle;Max_cycle;Signal;HPM_P1;HPM_P2
2022/04/22 00:01:08;;;;;;;13.90;7.43;;;9.30;99.90;;;;;;5054813;28;20786;-60
2022/04/22 00:03:35;;;;;;;12.33;7.47;;;9.20;1.00;;;;;;5054793;28;20209;-60
2022/04/22 00:06:02;;;;;;;11.03;8.23;;;9.20;58.60;;;;;;5054258;28;20217;-59
2022/04/22 00:08:29;;;;;;;9.70;7.43;;;9.20;99.90;;;;;;5054653;28;20237;-60
2022/04/22 00:13:40;;;;;;;9.17;7.03;;;9.10;99.90;;;;;;5054864;28;20620;-60
2022/04/22 00:16:08;;;;;;;10.37;7.73;;;9.10;1.00;;;;;;5054314;28;20214;-60
2022/04/22 00:18:34;;;;;;;9.23;6.67;;;9.20;1.00;;;;;;5054268;28;20222;-59
2022/04/22 00:21:01;;;;;;;11.07;7.60;;;9.20;1.00;;;;;;5054265;28;20251;-60
2022/04/22 00:23:28;;;;;;;9.03;7.20;;;9.10;1.00;;;;;;5054179;28;20252;-58
2022/04/22 00:25:55;;;;;;;9.40;7.43;;;9.20;1.00;;;;;;5053812;28;20746;-60
2022/04/22 00:28:22;;;;;;;12.37;8.07;;;9.10;1.00;;;;;;5054229;28;20283;-60
2022/04/22 00:30:49;;;;;;;10.40;8.07;;;9.10;78.60;;;;;;5054176;28;20718;-60
2022/04/22 00:33:17;;;;;;;10.80;7.57;;;9.10;99.90;;;;;;5054201;28;20675;-60
2022/04/22 00:35:43;;;;;;;12.43;7.37;;;9.10;99.90;;;;;;5054532;28;20623;-60
2022/04/22 00:38:11;;;;;;;8.93;6.80;;;9.10;1.00;;;;;;5053570;28;20738;-60
2022/04/22 00:40:38;;;;;;;10.63;6.77;;;9.00;1.00;;;;;;5054157;28;20209;-60
2022/04/22 00:43:14;;;;;;;12.07;7.77;;;9.00;99.90;;;;;;5054331;28;20205;-59
2022/04/22 00:45:41;;;;;;;12.97;7.80;;;9.00;99.90;;;;;;5053776;28;20228;-60
2022/04/22 00:48:08;;;;;;;9.33;7.40;;;8.90;1.00;;;;;;5053549;28;20257;-58
2022/04/22 00:50:37;;;;;;;11.83;8.07;;;8.90;99.90;;;;;;5053857;28;20229;-60
2022/04/22 00:53:04;;;;;;;10.73;8.07;;;8.90;1.00;;;;;;5053621;28;20213;-57
2022/04/22 00:55:31;;;;;;;11.83;8.47;;;8.80;23.60;;;;;;5053682;28;20202;-60
2022/04/22 00:57:59;;;;;;;13.87;8.63;;;8.80;99.90;;;;;;5053256;28;20763;-58
2022/04/22 01:00:26;;;;;;;11.87;8.53;;;8.80;99.90;;;;;;5053572;28;20201;-57
2022/04/22 01:02:53;;;;;;;12.70;8.63;;;8.80;1.00;;;;;;5053492;28;20740;-59
2022/04/22 01:10:51;;;;;;;11.93;8.03;;;8.90;99.90;;;;;;5014678;28;20246;-60
2022/04/22 01:13:18;;;;;;;12.87;8.53;;;8.80;1.00;;;;;;5053449;28;20282;-59
2022/04/22 01:15:45;;;;;;;14.17;8.87;;;8.80;1.00;;;;;;5053422;28;20236;-60
2022/04/22 01:18:13;;;;;;;16.10;8.83;;;8.80;1.00;;;;;;5053395;28;20256;-60
2022/04/22 01:20:40;;;;;;;12.60;8.80;;;8.80;1.00;;;;;;5053534;28;20694;-60
2022/04/22 01:23:08;;;;;;;13.47;8.93;;;8.70;99.90;;;;;;5052737;28;20244;-60
2022/04/22 01:25:35;;;;;;;13.73;8.90;;;8.70;99.90;;;;;;5053143;28;20221;-58
2022/04/22 01:28:03;;;;;;;12.63;8.90;;;8.70;99.90;;;;;;5052538;28;20230;-59
2022/04/22 01:30:30;;;;;;;13.53;9.50;;;8.80;99.90;;;;;;5052770;28;20206;-60
2022/04/22 01:32:57;;;;;;;12.60;8.93;;;8.80;99.90;;;;;;5053187;28;20205;-60
2022/04/22 01:35:25;;;;;;;15.40;9.90;;;8.80;99.90;;;;;;5052854;28;20324;-58
2022/04/22 01:37:52;;;;;;;15.07;9.40;;;8.80;99.90;;;;;;5052794;28;20244;-60
2022/04/22 01:40:20;;;;;;;16.23;10.87;;;8.80;99.90;;;;;;5052706;28;20561;-59
2022/04/22 01:42:47;;;;;;;17.50;10.50;;;8.80;1.00;;;;;;5052737;28;20240;-60
2022/04/22 01:45:14;;;;;;;12.77;8.53;;;8.80;99.90;;;;;;5052747;28;20233;-61
2022/04/22 01:47:40;;;;;;;17.33;8.93;;;8.80;99.90;;;;;;5052346;28;20210;-60
2022/04/22 01:50:08;;;;;;;14.03;9.57;;;8.90;1.00;;;;;;5052787;28;20264;-60
2022/04/22 01:52:36;;;;;;;15.53;9.93;;;8.90;99.90;;;;;;5052529;28;20271;-61
2022/04/22 01:55:04;;;;;;;15.10;10.30;;;8.90;99.90;;;;;;5052517;28;20292;-60
2022/04/22 01:57:32;;;;;;;15.90;10.00;;;8.90;99.90;;;;;;5051884;28;20675;-61
2022/04/22 02:00:00;;;;;;;15.97;9.80;;;8.90;1.00;;;;;;5052553;28;20785;-60
2022/04/22 02:02:26;;;;;;;12.90;9.43;;;8.90;1.00;;;;;;5052502;28;20236;-60
2022/04/22 02:04:53;;;;;;;16.03;9.57;;;9.00;99.90;;;;;;5052353;28;20226;-60
2022/04/22 02:07:20;;;;;;;18.27;10.07;;;9.00;1.00;;;;;;5052095;28;20201;-60
2022/04/22 02:09:47;;;;;;;15.57;10.70;;;9.00;99.90;;;;;;5052085;28;20719;-60
2022/04/22 02:12:13;;;;;;;15.70;10.70;;;9.00;99.90;;;;;;5052313;28;20271;-61
2022/04/22 02:14:42;;;;;;;15.23;10.37;;;8.90;99.90;;;;;;5052190;28;20897;-60
2022/04/22 02:17:08;;;;;;;16.07;10.67;;;8.80;49.90;;;;;;5051963;28;20213;-59
2022/04/22 02:19:35;;;;;;;17.37;10.17;;;8.80;99.90;;;;;;5052034;28;20233;-60
2022/04/22 02:22:01;;;;;;;18.10;10.27;;;8.80;99.90;;;;;;5052158;28;20572;-60
2022/04/22 02:24:28;;;;;;;17.47;11.37;;;8.80;99.90;;;;;;5051735;28;20708;-60
2022/04/22 02:29:40;;;;;;;20.30;12.03;;;8.70;99.90;;;;;;5051903;28;20317;-59
2022/04/22 02:32:09;;;;;;;17.10;10.27;;;8.60;1.00;;;;;;5052090;28;20205;-60
2022/04/22 02:34:36;;;;;;;16.87;10.63;;;8.60;1.00;;;;;;5051395;28;20255;-60
2022/04/22 02:37:02;;;;;;;17.37;11.23;;;8.60;94.00;;;;;;5051229;28;20236;-58
2022/04/22 02:39:29;;;;;;;19.30;11.87;;;8.60;99.90;;;;;;5051700;28;20233;-60
2022/04/22 02:47:25;;;;;;;15.63;10.40;;;8.60;99.90;;;;;;5051255;28;20326;-60
2022/04/22 02:49:52;;;;;;;16.57;11.83;;;8.60;99.90;;;;;;5051900;28;20279;-59
2022/04/22 02:52:19;;;;;;;20.07;12.03;;;8.50;99.90;;;;;;5051599;28;20237;-60
2022/04/22 02:54:45;;;;;;;18.53;11.47;;;8.50;99.90;;;;;;5051825;28;20204;-60
2022/04/22 02:57:12;;;;;;;18.60;11.80;;;8.40;99.90;;;;;;5051423;28;20217;-59
2022/04/22 02:59:41;;;;;;;21.40;12.53;;;8.40;99.90;;;;;;5051696;28;20252;-60
2022/04/22 03:02:08;;;;;;;19.70;11.80;;;8.40;99.90;;;;;;5051552;28;20687;-61
2022/04/22 03:04:36;;;;;;;19.90;12.27;;;8.40;99.90;;;;;;5051319;28;20721;-60
2022/04/22 03:07:03;;;;;;;18.47;11.97;;;8.40;1.00;;;;;;5051483;28;20212;-58
2022/04/22 03:09:30;;;;;;;21.90;13.87;;;8.40;1.00;;;;;;5051412;28;20275;-60
2022/04/22 03:11:56;;;;;;;19.50;12.00;;;8.30;1.00;;;;;;5051547;28;20209;-57
2022/04/22 03:14:23;;;;;;;19.40;11.73;;;8.40;1.00;;;;;;5051589;28;20214;-60
2022/04/22 03:16:50;;;;;;;20.00;12.80;;;8.40;1.00;;;;;;5051358;28;20209;-60
2022/04/22 03:19:17;;;;;;;18.90;12.57;;;8.40;1.00;;;;;;5051565;28;20225;-60
2022/04/22 03:21:45;;;;;;;22.57;13.80;;;8.30;1.00;;;;;;5051207;28;20274;-60
2022/04/22 03:24:11;;;;;;;19.20;12.47;;;8.30;1.00;;;;;;5051407;28;20208;-61
2022/04/22 03:26:38;;;;;;;21.63;13.03;;;8.30;1.00;;;;;;5050852;28;20316;-60
2022/04/22 03:29:05;;;;;;;17.93;12.47;;;8.30;1.00;;;;;;5051274;28;20365;-58
2022/04/22 03:31:31;;;;;;;19.47;12.77;;;8.30;1.00;;;;;;5051499;28;20214;-60
2022/04/22 03:33:58;;;;;;;22.43;13.73;;;8.30;1.00;;;;;;5051510;28;20201;-60
2022/04/22 03:36:25;;;;;;;19.93;13.03;;;8.30;1.00;;;;;;5051089;28;20204;-60
2022/04/22 03:38:53;;;;;;;22.57;12.83;;;8.20;1.00;;;;;;5050949;28;20229;-60
2022/04/22 03:41:20;;;;;;;22.07;13.37;;;8.20;1.00;;;;;;5051646;28;20216;-61
2022/04/22 03:43:46;;;;;;;22.50;12.83;;;8.30;1.00;;;;;;5051076;28;20672;-60
2022/04/22 03:46:13;;;;;;;21.07;12.80;;;8.20;1.00;;;;;;5053552;28;20298;-60
2022/04/22 03:48:41;;;;;;;20.90;13.40;;;8.20;1.00;;;;;;5054957;28;20232;-60
2022/04/22 03:51:08;;;;;;;20.13;12.70;;;8.20;1.00;;;;;;5055097;28;20212;-60
2022/04/22 03:53:37;;;;;;;20.97;12.63;;;8.20;1.00;;;;;;5054961;28;20257;-60
2022/04/22 03:58:46;;;;;;;22.40;13.17;;;8.20;1.00;;;;;;5054704;28;20227;-60
2022/04/22 04:01:13;;;;;;;24.13;14.17;;;8.20;1.00;;;;;;5054851;28;20270;-60
2022/04/22 04:03:40;;;;;;;22.40;13.80;;;8.20;1.00;;;;;;5054918;28;20213;-60
2022/04/22 04:06:07;;;;;;;26.70;14.70;;;8.20;1.00;;;;;;5054263;28;20233;-60
2022/04/22 04:08:34;;;;;;;24.73;15.20;;;8.10;1.00;;;;;;5054487;28;20409;-61
2022/04/22 04:16:27;;;;;;;22.33;14.20;;;8.00;1.00;;;;;;5053997;28;20232;-60
2022/04/22 04:23:14;;;;;;;21.97;13.87;;;8.10;1.00;;;;;;5054316;28;20233;-58
2022/04/22 04:24:25;;;;;;;20.17;12.83;;;8.00;1.00;;;;;;5032778;28;20209;-60
2022/04/22 04:26:53;;;;;;;24.93;16.07;;;8.00;1.00;;;;;;5053931;28;20774;-60
2022/04/22 04:29:21;;;;;;;29.40;15.63;;;8.10;1.00;;;;;;5054114;28;20630;-59
2022/04/22 04:31:48;;;;;;;24.70;16.67;;;8.10;1.00;;;;;;5054592;28;20633;-60
2022/04/22 04:34:14;;;;;;;25.73;16.47;;;8.10;1.00;;;;;;5054621;28;20214;-60
2022/04/22 04:36:41;;;;;;;27.13;16.63;;;8.20;1.00;;;;;;5056028;28;20262;-61
2022/04/22 04:39:08;;;;;;;25.80;16.33;;;8.20;1.00;;;;;;5072822;28;20227;-56
2022/04/22 04:41:35;;;;;;;27.40;15.50;;;8.20;1.00;;;;;;5073928;28;20209;-58
2022/04/22 04:44:02;;;;;;;25.97;17.20;;;8.20;1.00;;;;;;5074234;28;20238;-59
2022/04/22 04:46:30;;;;;;;26.50;17.17;;;8.20;1.00;;;;;;5074091;28;20232;-59
2022/04/22 04:48:59;;;;;;;25.53;15.87;;;8.20;1.00;;;;;;5074168;28;20306;-59
2022/04/22 04:51:25;;;;;;;25.70;16.23;;;8.20;1.00;;;;;;5074366;28;20216;-56
2022/04/22 04:53:52;;;;;;;26.80;16.83;;;8.20;1.00;;;;;;5073850;28;20216;-57
2022/04/22 04:56:18;;;;;;;30.00;18.87;;;8.20;1.00;;;;;;5072772;28;20201;-58
2022/04/22 04:58:45;;;;;;;30.07;16.83;;;8.20;1.00;;;;;;5072803;28;20231;-59
2022/04/22 05:01:12;;;;;;;31.10;19.40;;;8.20;7.40;;;;;;5073727;28;20205;-58
2022/04/22 05:03:40;;;;;;;28.67;18.00;;;8.20;10.80;;;;;;5073403;28;20201;-58
2022/04/22 05:06:08;;;;;;;30.37;19.53;;;8.20;10.60;;;;;;5073809;28;20277;-57
2022/04/22 05:08:35;;;;;;;28.70;17.63;;;8.20;11.60;;;;;;5073118;28;20229;-56
2022/04/22 05:11:02;;;;;;;30.80;18.57;;;8.20;13.30;;;;;;5073284;28;20205;-58
2022/04/22 05:13:28;;;;;;;29.90;19.17;;;8.20;17.60;;;;;;5072910;28;20286;-56
2022/04/22 05:15:56;;;;;;;31.23;19.50;;;8.30;26.00;;;;;;5073152;28;20201;-58
2022/04/22 05:18:23;;;;;;;28.10;18.90;;;8.30;30.50;;;;;;5073138;28;20865;-59
2022/04/22 05:20:52;;;;;;;31.80;20.10;;;8.40;34.90;;;;;;5072869;28;20216;-65
2022/04/22 05:23:18;;;;;;;31.70;20.03;;;8.40;40.30;;;;;;5061558;28;20558;-62
2022/04/22 05:25:45;;;;;;;29.57;19.20;;;8.50;42.40;;;;;;5070500;28;20246;-60
2022/04/22 05:28:12;;;;;;;29.97;19.87;;;8.60;39.80;;;;;;5072195;28;20290;-61
2022/04/22 05:33:22;;;;;;;30.00;18.77;;;8.70;29.10;;;;;;5072321;28;20196;-59
2022/04/22 05:35:51;;;;;;;31.53;20.13;;;8.80;25.60;;;;;;5072270;28;20231;-60
2022/04/22 05:38:17;;;;;;;30.03;19.60;;;8.90;17.20;;;;;;5071582;28;20315;-60
2022/04/22 05:40:46;;;;;;;28.27;18.27;;;9.00;4.00;;;;;;5072318;28;20216;-58
2022/04/22 05:43:12;;;;;;;26.83;17.73;;;9.10;1.00;;;;;;5071933;28;20205;-60
2022/04/22 05:45:39;;;;;;;30.13;20.20;;;9.10;1.00;;;;;;5071894;28;20225;-61
2022/04/22 05:48:07;;;;;;;28.27;18.70;;;9.20;1.00;;;;;;5071813;28;20233;-62
2022/04/22 05:50:33;;;;;;;26.87;18.40;;;9.20;1.00;;;;;;5071767;28;20205;-60
2022/04/22 05:53:01;;;;;;;26.90;17.63;;;9.30;1.00;;;;;;5071865;28;20205;-56
2022/04/22 05:55:29;;;;;;;25.70;17.10;;;9.30;1.00;;;;;;5071471;28;20675;-60
2022/04/22 05:57:57;;;;;;;23.73;15.97;;;9.30;1.00;;;;;;5071888;28;20255;-60
2022/04/22 06:00:27;;;;;;;25.33;16.87;;;9.40;1.00;;;;;;5071536;28;20266;-57
2022/04/22 06:02:55;;;;;;;25.00;17.00;;;9.40;1.00;;;;;;5071889;28;20205;-66
2022/04/22 06:05:23;;;;;;;25.20;16.20;;;9.50;1.00;;;;;;5071180;28;20303;-64
2022/04/22 06:10:31;;;;;;;22.30;14.07;;;9.50;1.00;;;;;;5071361;28;20209;-65
2022/04/22 06:10:40;;;;;;;23.40;15.70;;;9.60;1.00;;;;;;5071450;28;20572;-65
2022/04/22 06:13:07;;;;;;;23.30;15.13;;;9.70;99.90;;;;;;5071132;28;20223;-66
2022/04/22 06:15:35;;;;;;;19.10;12.80;;;9.80;99.90;;;;;;5071373;28;20639;-65
2022/04/22 06:18:02;;;;;;;28.43;16.43;;;9.70;99.90;;;;;;5071107;28;20366;-64
2022/04/22 06:20:29;;;;;;;21.20;14.60;;;9.90;99.90;;;;;;5071464;28;20296;-63
2022/04/22 06:22:55;;;;;;;21.43;14.20;;;9.90;1.00;;;;;;5071411;28;20618;-63
2022/04/22 06:25:22;;;;;;;20.90;13.90;;;10.00;99.90;;;;;;5071070;28;20201;-62
2022/04/22 06:27:50;;;;;;;20.63;13.17;;;10.00;1.00;;;;;;5071271;28;20204;-62
2022/04/22 06:30:19;;;;;;;17.30;10.27;;;10.20;99.90;;;;;;5071221;28;20265;-62
2022/04/22 06:32:47;;;;;;;19.63;12.97;;;10.20;1.00;;;;;;5071727;28;20209;-63
2022/04/22 06:35:18;;;;;;;20.73;13.77;;;10.20;99.90;;;;;;5071422;28;20217;-63
2022/04/22 06:37:47;;;;;;;19.83;12.77;;;10.20;1.00;;;;;;5070894;28;20266;-64
2022/04/22 06:45:52;;;;;;;18.23;11.97;;;10.50;99.90;;;;;;5071013;28;20236;-61
2022/04/22 06:48:21;;;;;;;17.17;11.90;;;10.50;99.90;;;;;;5071228;28;20225;-63
2022/04/22 06:50:49;;;;;;;16.07;11.87;;;10.50;1.00;;;;;;5071221;28;20206;-63
2022/04/22 06:53:17;;;;;;;18.20;11.57;;;10.50;1.00;;;;;;5070733;28;20224;-64
2022/04/22 06:55:50;;;;;;;16.73;11.67;;;10.80;14.60;;;;;;5070799;28;20227;-64
2022/04/22 06:58:19;;;;;;;17.67;11.50;;;11.00;99.90;;;;;;5051860;28;20614;-64
2022/04/22 07:00:47;;;;;;;14.60;11.03;;;11.20;99.90;;;;;;5050633;28;20212;-64
2022/04/22 07:03:15;;;;;;;14.40;10.83;;;11.30;1.00;;;;;;5051148;28;20212;-60
2022/04/22 07:05:44;;;;;;;13.47;9.67;;;11.20;99.90;;;;;;5050394;28;20213;-60
2022/04/22 07:08:13;;;;;;;15.63;10.73;;;11.30;99.90;;;;;;5050634;28;20221;-61
2022/04/22 07:10:41;;;;;;;17.13;10.67;;;11.30;99.90;;;;;;5051123;28;20636;-59
2022/04/22 07:13:08;;;;;;;13.43;9.50;;;11.40;1.00;;;;;;5050763;28;20250;-61
2022/04/22 07:15:37;;;;;;;12.53;9.77;;;11.50;1.00;;;;;;5050797;28;20209;-60
2022/04/22 07:18:04;;;;;;;10.97;7.03;;;11.40;1.00;;;;;;5050607;28;20229;-60
2022/04/22 07:20:32;;;;;;;12.87;9.80;;;11.50;99.90;;;;;;5052177;28;20209;-60
2022/04/22 07:22:59;;;;;;;15.53;10.43;;;11.50;99.90;;;;;;5054647;28;20739;-61
2022/04/22 07:25:27;;;;;;;13.37;9.20;;;11.60;1.00;;;;;;5054296;28;20266;-61
2022/04/22 07:27:54;;;;;;;12.87;9.30;;;11.60;99.90;;;;;;5054481;28;20308;-61
2022/04/22 07:30:23;;;;;;;15.87;9.83;;;11.50;99.90;;;;;;5054466;28;20205;-60
2022/04/22 07:32:52;;;;;;;13.30;9.67;;;11.30;99.90;;;;;;5054748;28;20216;-58
2022/04/22 07:35:20;;;;;;;17.53;10.33;;;11.30;99.90;;;;;;5054499;28;20214;-64
2022/04/22 07:37:49;;;;;;;12.93;8.43;;;11.30;99.90;;;;;;5054335;28;20212;-62
2022/04/22 07:40:19;;;;;;;12.63;8.83;;;11.30;99.90;;;;;;5054852;28;20208;-63
2022/04/22 07:48:15;;;;;;;13.93;9.77;;;11.30;91.60;;;;;;5053484;28;20231;-62
2022/04/22 07:50:42;;;;;;;14.60;9.33;;;11.40;99.90;;;;;;5054241;28;20270;-60
2022/04/22 07:53:09;;;;;;;14.63;9.73;;;11.40;1.00;;;;;;5054222;28;20279;-60
2022/04/22 07:55:35;;;;;;;12.83;8.97;;;11.50;1.00;;;;;;5053567;28;20206;-62
2022/04/22 07:58:02;;;;;;;14.77;10.40;;;11.40;1.00;;;;;;5053915;28;20231;-61
2022/04/22 08:00:29;;;;;;;12.80;8.93;;;11.30;1.00;;;;;;5053902;28;20209;-59
2022/04/22 08:02:55;;;;;;;11.97;8.47;;;11.40;1.00;;;;;;5054126;28;20266;-60
2022/04/22 08:05:23;;;;;;;14.37;9.30;;;11.60;1.00;;;;;;5053536;28;20209;-59
2022/04/22 08:07:50;;;;;;;17.50;10.43;;;11.60;1.00;;;;;;5053774;28;20280;-62
2022/04/22 08:10:17;;;;;;;15.23;10.10;;;11.80;1.00;;;;;;5054621;28;20239;-64
2022/04/22 08:12:44;;;;;;;14.03;11.13;;;11.90;1.00;;;;;;5056769;28;20718;-64
2022/04/22 08:15:11;;;;;;;12.30;9.57;;;11.90;1.00;;;;;;5056557;28;20206;-62
2022/04/22 08:17:38;;;;;;;16.63;10.57;;;11.90;1.00;;;;;;5053436;28;20622;-64
2022/04/22 08:20:05;;;;;;;13.20;10.17;;;11.90;1.00;;;;;;5053803;28;20644;-63
2022/04/22 08:22:36;;;;;;;14.20;9.80;;;12.00;1.00;;;;;;5053694;28;20271;-62
2022/04/22 08:25:04;;;;;;;11.90;8.33;;;12.10;1.00;;;;;;5052782;28;20258;-62
2022/04/22 08:27:30;;;;;;;14.93;10.27;;;12.10;1.00;;;;;;5053383;28;20220;-62
2022/04/22 08:29:57;;;;;;;10.83;8.40;;;12.20;1.00;;;;;;5053589;28;20263;-62
2022/04/22 08:32:24;;;;;;;14.17;10.03;;;12.30;1.00;;;;;;5052539;28;20244;-62
2022/04/22 08:34:52;;;;;;;11.37;8.87;;;12.30;1.00;;;;;;5053181;28;20695;-62
2022/04/22 08:37:18;;;;;;;13.17;9.37;;;12.60;1.00;;;;;;5052685;28;20300;-61
2022/04/22 08:39:47;;;;;;;15.40;9.47;;;12.80;99.90;;;;;;5052885;28;20230;-60
2022/04/22 08:42:15;;;;;;;12.63;9.77;;;12.80;99.90;;;;;;5053331;28;20201;-62
2022/04/22 08:44:42;;;;;;;11.93;9.07;;;13.20;99.90;;;;;;5053572;28;20292;-59
2022/04/22 08:50:02;;;;;;;12.63;9.73;;;13.10;99.90;;;;;;5053315;28;20344;-58
2022/04/22 08:52:31;;;;;;;13.93;10.20;;;12.80;99.90;;;;;;5053257;28;20763;-59
2022/04/22 08:55:01;;;;;;;11.40;8.80;;;12.90;99.90;;;;;;5053396;28;20297;-61
2022/04/22 08:57:28;;;;;;;14.47;10.87;;;12.80;99.90;;;;;;5054368;28;20209;-61
2022/04/22 08:59:58;;;;;;;14.23;9.83;;;12.70;99.90;;;;;;5053721;28;20312;-62
2022/04/22 09:02:25;;;;;;;13.93;10.90;;;12.60;99.90;;;;;;5054019;28;20632;-61
2022/04/22 09:04:52;;;;;;;13.77;10.83;;;12.60;99.90;;;;;;5053129;28;20220;-62
2022/04/22 09:07:21;;;;;;;14.27;10.67;;;12.60;99.90;;;;;;5053021;28;20703;-59
2022/04/22 09:09:49;;;;;;;14.47;10.50;;;12.70;99.90;;;;;;5053923;28;20316;-61
2022/04/22 09:12:21;;;;;;;14.57;10.73;;;12.80;99.90;;;;;;5052537;28;20244;-64
2022/04/22 09:14:50;;;;;;;15.03;11.93;;;12.90;99.90;;;;;;5052826;28;20213;-62
2022/04/22 09:17:23;;;;;;;16.73;12.27;;;12.80;99.90;;;;;;5052330;28;20311;-62
2022/04/22 09:19:49;;;;;;;16.10;12.43;;;12.80;99.90;;;;;;5052767;28;20734;-62
2022/04/22 09:22:19;;;;;;;17.70;12.63;;;12.70;99.90;;;;;;5052604;28;20213;-63
2022/04/22 09:24:48;;;;;;;16.63;13.50;;;12.80;99.90;;;;;;5052511;28;20209;-63
2022/04/22 09:27:15;;;;;;;17.73;12.13;;;12.90;99.90;;;;;;5052054;28;20225;-61
2022/04/22 09:29:44;;;;;;;16.60;12.40;;;13.00;99.90;;;;;;5052133;28;20295;-60
2022/04/22 09:32:12;;;;;;;14.87;11.57;;;13.10;99.90;;;;;;5052681;28;20634;-58
2022/04/22 09:34:42;;;;;;;13.33;10.80;;;13.30;99.90;;;;;;5052310;28;20206;-59
2022/04/22 09:43:12;;;;;;;12.10;9.40;;;12.90;99.90;;;;;;5009675;28;20206;-61
2022/04/22 09:45:40;;;;;;;16.77;11.47;;;12.90;99.90;;;;;;5009939;28;20293;-61
2022/04/22 09:48:14;;;;;;;12.43;10.00;;;13.00;99.90;;;;;;5027898;28;20320;-61
2022/04/22 09:50:45;;;;;;;12.10;9.83;;;13.10;99.90;;;;;;5052241;28;20214;-61
2022/04/22 09:53:14;;;;;;;12.50;9.70;;;13.20;99.90;;;;;;5051613;28;20235;-62
2022/04/22 09:55:53;;;;;;;12.37;8.87;;;13.30;99.90;;;;;;5051850;28;20210;-60
2022/04/22 09:58:24;;;;;;;13.30;8.93;;;13.20;99.90;;;;;;5051909;28;20217;-59
2022/04/22 10:00:58;;;;;;;12.73;9.47;;;13.20;99.90;;;;;;5051507;28;20201;-59
2022/04/22 10:03:27;;;;;;;10.90;7.53;;;13.30;99.90;;;;;;5052021;28;20297;-59
2022/04/22 10:05:55;;;;;;;13.67;9.07;;;13.30;99.90;;;;;;5051023;28;20208;-63
2022/04/22 10:08:22;;;;;;;10.63;8.20;;;13.40;99.90;;;;;;5051642;28;20238;-61
2022/04/22 10:10:51;;;;;;;12.60;7.90;;;13.50;99.90;;;;;;5051420;28;20211;-64
2022/04/22 10:13:22;;;;;;;13.07;7.77;;;13.60;99.90;;;;;;5051505;28;20255;-64
2022/04/22 10:15:50;;;;;;;8.70;6.93;;;13.50;99.90;;;;;;5051571;28;20207;-65
2022/04/22 10:18:19;;;;;;;9.90;8.23;;;13.40;99.90;;;;;;5051319;28;20233;-61
2022/04/22 10:20:47;;;;;;;8.47;7.00;;;13.60;99.90;;;;;;5051719;28;20292;-62
2022/04/22 10:23:14;;;;;;;11.47;8.13;;;13.90;99.90;;;;;;5051388;28;20211;-63
2022/04/22 10:25:41;;;;;;;10.53;7.80;;;13.90;99.90;;;;;;5050936;28;20712;-62
2022/04/22 10:28:10;;;;;;;10.73;7.40;;;14.00;99.90;;;;;;5050782;28;20243;-62
2022/04/22 10:30:40;;;;;;;8.87;6.57;;;14.10;99.90;;;;;;5051611;28;20274;-62
2022/04/22 10:33:08;;;;;;;8.57;6.73;;;14.20;99.90;;;;;;5051370;28;20378;-61
2022/04/22 10:35:41;;;;;;;9.10;6.80;;;14.60;99.90;;;;;;5050636;28;20251;-61
2022/04/22 10:38:27;;;;;;;11.43;7.40;;;14.90;99.90;;;;;;5051111;28;20271;-61
2022/04/22 10:40:53;;;;;;;8.23;6.50;;;14.70;99.90;;;;;;5048775;28;20209;-61
2022/04/22 10:43:20;;;;;;;10.57;6.90;;;14.60;99.90;;;;;;5051331;28;20269;-59
2022/04/22 10:48:32;;;;;;;8.53;7.03;;;13.80;99.90;;;;;;5051042;28;20278;-59
2022/04/22 10:51:01;;;;;;;9.27;6.70;;;13.60;99.90;;;;;;5051200;28;20212;-62
2022/04/22 10:53:29;;;;;;;10.33;7.50;;;13.60;99.90;;;;;;5051058;28;20269;-62
2022/04/22 10:56:32;;;;;;;14.43;8.00;;;13.70;99.90;;;;;;5049925;28;20650;-64
2022/04/22 10:59:24;;;;;;;8.93;7.43;;;13.60;99.90;;;;;;5050786;28;20231;-62
2022/04/22 11:01:56;;;;;;;8.07;6.87;;;13.70;99.90;;;;;;5051276;28;20241;-64
2022/04/22 11:04:24;;;;;;;9.43;7.37;;;13.70;99.90;;;;;;5050948;28;20622;-62
2022/04/22 11:06:52;;;;;;;9.90;7.60;;;14.10;99.90;;;;;;5050470;28;20589;-62
2022/04/22 11:09:26;;;;;;;12.27;7.57;;;14.70;99.90;;;;;;5051001;28;20227;-63
2022/04/22 11:11:53;;;;;;;10.77;8.37;;;14.80;99.90;;;;;;5051302;28;20191;-62
2022/04/22 11:14:21;;;;;;;12.43;9.43;;;14.90;99.90;;;;;;5051139;28;20597;-62
2022/04/22 11:16:47;;;;;;;12.43;9.13;;;15.10;99.90;;;;;;5050205;28;20744;-62
2022/04/22 11:19:36;;;;;;;11.20;8.43;;;15.00;99.90;;;;;;5051147;28;20250;-61
2022/04/22 11:22:07;;;;;;;12.57;10.03;;;14.60;99.90;;;;;;5050538;28;20217;-61
2022/04/22 11:24:34;;;;;;;12.27;8.80;;;14.40;99.90;;;;;;5051015;28;20301;-62
2022/04/22 11:27:05;;;;;;;11.53;8.43;;;14.10;99.90;;;;;;5050700;28;20208;-62
2022/04/22 11:29:32;;;;;;;11.80;8.93;;;14.00;99.90;;;;;;5050833;28;20223;-60
2022/04/22 11:32:05;;;;;;;13.03;10.47;;;13.90;99.90;;;;;;5051269;28;20211;-61
2022/04/22 11:34:54;;;;;;;12.37;8.67;;;14.10;99.90;;;;;;5050450;28;20206;-62
2022/04/22 11:37:23;;;;;;;14.50;10.23;;;13.90;99.90;;;;;;5050726;28;20198;-59
2022/04/22 11:39:51;;;;;;;12.53;8.73;;;13.80;99.90;;;;;;5050558;28;20240;-60
2022/04/22 11:42:18;;;;;;;15.63;10.13;;;13.90;99.90;;;;;;5051124;28;20210;-61
2022/04/22 11:44:45;;;;;;;10.97;8.53;;;14.10;99.90;;;;;;5050682;28;20213;-60
2022/04/22 11:47:12;;;;;;;11.50;8.53;;;14.20;99.90;;;;;;5049737;28;20228;-61
2022/04/22 11:49:39;;;;;;;11.83;8.37;;;14.40;99.90;;;;;;5050806;28;20231;-64
2022/04/22 11:52:07;;;;;;;12.00;8.63;;;14.30;99.90;;;;;;5050834;28;20217;-63
2022/04/22 11:54:36;;;;;;;12.30;7.83;;;14.30;99.90;;;;;;5051077;28;20296;-61
2022/04/22 11:57:05;;;;;;;11.77;9.13;;;14.30;99.90;;;;;;5050100;28;20298;-61
2022/04/22 11:59:32;;;;;;;9.33;6.73;;;14.10;99.90;;;;;;5050269;28;20880;-61
2022/04/22 12:10:12;;;;;;;10.83;8.27;;;13.90;99.90;;;;;;5054274;28;20281;-62
2022/04/22 12:12:49;;;;;;;11.33;8.47;;;13.90;99.90;;;;;;5054202;28;20612;-62
2022/04/22 12:15:19;;;;;;;13.70;8.73;;;14.00;99.90;;;;;;5053768;28;20204;-62
2022/04/22 12:17:46;;;;;;;12.23;8.83;;;14.40;99.90;;;;;;5053550;28;20206;-61
2022/04/22 12:20:13;;;;;;;12.07;8.80;;;14.70;99.90;;;;;;5054077;28;20649;-62
2022/04/22 12:22:41;;;;;;;12.10;8.43;;;14.70;99.90;;;;;;5053366;28;20568;-59
2022/04/22 12:25:13;;;;;;;13.93;9.37;;;14.50;99.90;;;;;;5053525;28;20220;-61
2022/04/22 12:27:41;;;;;;;10.40;6.47;;;14.50;99.90;;;;;;5053306;28;20233;-62
2022/04/22 12:30:10;;;;;;;11.97;8.53;;;14.50;99.90;;;;;;5054174;28;20621;-62
2022/04/22 12:32:37;;;;;;;14.70;9.77;;;14.50;99.90;;;;;;5053846;28;20209;-61
2022/04/22 12:35:11;;;;;;;11.93;8.70;;;14.30;99.90;;;;;;5053165;28;20744;-61
2022/04/22 12:37:38;;;;;;;10.63;7.47;;;14.10;99.90;;;;;;5053388;28;20642;-60
2022/04/22 12:40:09;;;;;;;10.77;7.93;;;14.10;99.90;;;;;;5053319;28;20228;-61
2022/04/22 12:42:39;;;;;;;12.30;7.03;;;14.20;99.90;;;;;;5053705;28;20623;-60
2022/04/22 12:53:41;;;;;;;11.73;8.27;;;13.80;99.90;;;;;;5053310;28;20206;-63
2022/04/22 12:56:09;;;;;;;12.43;7.77;;;13.90;99.90;;;;;;5052801;28;20667;-64
2022/04/22 12:58:53;;;;;;;9.43;6.67;;;14.30;99.90;;;;;;5053376;28;20595;-65
2022/04/22 13:01:20;;;;;;;11.00;7.67;;;14.40;99.90;;;;;;5053169;28;20240;-62
2022/04/22 13:03:47;;;;;;;11.43;7.63;;;14.10;99.90;;;;;;5052319;28;20676;-61
2022/04/22 13:06:39;;;;;;;9.63;7.27;;;14.10;99.90;;;;;;5052034;28;20208;-65
2022/04/22 13:09:07;;;;;;;11.13;7.83;;;13.90;99.90;;;;;;5052731;28;20651;-61
2022/04/22 13:11:34;;;;;;;12.17;8.47;;;13.70;99.90;;;;;;5053340;28;20211;-60
2022/04/22 13:14:03;;;;;;;9.77;8.00;;;13.90;99.90;;;;;;5053277;28;20236;-62
2022/04/22 13:16:30;;;;;;;10.57;7.87;;;14.10;99.90;;;;;;5052007;28;20678;-61
2022/04/22 13:18:57;;;;;;;12.00;9.20;;;14.20;99.90;;;;;;5052443;28;20263;-62
2022/04/22 13:21:23;;;;;;;12.43;8.50;;;14.40;99.90;;;;;;5053041;28;20213;-62
2022/04/22 13:23:50;;;;;;;10.73;7.83;;;14.60;99.90;;;;;;5053802;28;20278;-65
2022/04/22 13:26:17;;;;;;;12.53;8.40;;;14.70;99.90;;;;;;5052889;28;20208;-63
2022/04/22 13:28:44;;;;;;;14.30;9.30;;;14.80;99.90;;;;;;5053062;28;20362;-63
2022/04/22 13:31:12;;;;;;;13.70;9.60;;;15.00;99.90;;;;;;5053913;28;20210;-61
2022/04/22 13:33:40;;;;;;;10.87;8.83;;;15.20;99.90;;;;;;5053333;28;20614;-61
2022/04/22 13:36:09;;;;;;;9.23;7.27;;;15.10;99.90;;;;;;5052289;28;20213;-59
2022/04/22 13:38:38;;;;;;;10.23;7.90;;;14.90;99.90;;;;;;5052083;28;20253;-59
2022/04/22 13:41:05;;;;;;;12.97;8.73;;;14.80;99.90;;;;;;5052528;28;20746;-59
2022/04/22 13:43:32;;;;;;;8.93;6.50;;;14.80;99.90;;;;;;5052404;28;20549;-59
2022/04/22 13:54:12;;;;;;;14.27;8.83;;;14.60;99.90;;;;;;5052427;28;20298;-60
2022/04/22 13:56:39;;;;;;;10.47;8.10;;;14.40;99.90;;;;;;5051764;28;20209;-60
2022/04/22 13:59:06;;;;;;;10.80;8.23;;;14.60;99.90;;;;;;5052209;28;20793;-60
2022/04/22 14:01:33;;;;;;;10.87;7.93;;;14.60;99.90;;;;;;5052481;28;20205;-60
2022/04/22 14:04:01;;;;;;;10.73;8.50;;;14.90;99.90;;;;;;5052252;28;20209;-59